Pearcot, Washington
Current Conditions -  °F | °C
As of 11:55 PM on Saturday 25 Oct 2014 (Local Time) from KEAT Reporting Station
Light Rain Light Rain  
Wind Chill: 55°   Ceiling: Unl
Heat Index: 55°   Visibility: 10mi
Dew Point: 32°   Wind: 30mph
Humidity: 42%   Direction: 250°WSW
Pressure: 29.59"   Gusts: 38mph
Location:  47.3635°N, 120.348°W
Report Text: KEAT 260655Z AUTO 25026G33KT 10SM -RA CLR 13/00 A2959 RMK AO2 PK WND 25049/0616 SLP019 P0000 T01280000
Loading
Personal Weather Stations






























Interactive Weather Map New forecast layout! Learn more

10-Day Weather Forecast

Advertisements
Track Severe Weather on mobile